Time;durP1;ratioP1;P1;durP2;ratioP2;P2;SDS_P1;SDS_P2;PMS_P1;PMS_P2;Temp;Humidity;BMP_temperature;BMP_pressure;BME280_temperature;BME280_humidity;BME280_pressure;Samples;Min_cycle;Max_cycle;Signal;HPM_P1;HPM_P2
2021/08/11 00:00:32;;;;;;;9.37;5.83;;;14.70;99.90;;;;;;4975000;28;20281;-85
2021/08/11 00:02:58;;;;;;;19.27;7.30;;;14.70;99.90;;;;;;4977531;28;20210;-88
2021/08/11 00:05:25;;;;;;;10.87;6.50;;;14.60;99.90;;;;;;4973464;28;20310;-88
2021/08/11 00:07:50;;;;;;;12.37;5.63;;;14.60;99.90;;;;;;5022459;28;20226;-87
2021/08/11 00:10:16;;;;;;;12.70;6.23;;;14.60;99.90;;;;;;5016596;28;20199;-86
2021/08/11 00:12:42;;;;;;;15.63;7.73;;;14.60;99.90;;;;;;5014595;28;20202;-84
2021/08/11 00:15:09;;;;;;;9.10;6.47;;;14.50;99.90;;;;;;5014823;28;20197;-87
2021/08/11 00:17:35;;;;;;;13.27;6.33;;;14.50;99.90;;;;;;5002640;28;20542;-86
2021/08/11 00:20:00;;;;;;;14.10;7.33;;;14.50;99.90;;;;;;5015581;28;20241;-88
2021/08/11 00:22:28;;;;;;;11.47;6.60;;;14.50;99.90;;;;;;4983364;28;20254;-85
2021/08/11 00:24:54;;;;;;;13.93;7.63;;;14.40;99.90;;;;;;5009980;28;20230;-87
2021/08/11 00:27:19;;;;;;;9.30;6.17;;;14.50;99.90;;;;;;5011313;28;20391;-87
2021/08/11 00:29:45;;;;;;;20.77;6.93;;;14.50;99.90;;;;;;4978931;28;20199;-85
2021/08/11 00:32:11;;;;;;;21.53;8.30;;;14.40;99.90;;;;;;4976621;28;20202;-87
2021/08/11 00:34:37;;;;;;;15.30;8.03;;;14.40;99.90;;;;;;4961433;28;20219;-87
2021/08/11 00:37:03;;;;;;;10.67;7.27;;;14.40;99.90;;;;;;4977070;28;20288;-86
2021/08/11 00:39:28;;;;;;;10.57;6.50;;;14.40;99.90;;;;;;4960824;28;20507;-86
2021/08/11 00:41:54;;;;;;;14.50;7.13;;;14.30;99.90;;;;;;4954935;28;20225;-86
2021/08/11 00:44:20;;;;;;;12.10;6.70;;;14.30;99.90;;;;;;4962294;28;20190;-88
2021/08/11 00:46:46;;;;;;;10.63;7.37;;;14.30;99.90;;;;;;4968665;28;20217;-86
2021/08/11 00:49:16;;;;;;;16.80;7.10;;;14.30;99.90;;;;;;4968283;28;20215;-85
2021/08/11 00:51:43;;;;;;;12.23;8.27;;;14.30;99.90;;;;;;4999442;28;20222;-85
2021/08/11 00:54:10;;;;;;;12.60;6.83;;;14.30;99.90;;;;;;4979047;28;20215;-86
2021/08/11 00:56:38;;;;;;;12.90;8.33;;;14.30;99.90;;;;;;4968521;28;20187;-86
2021/08/11 00:59:04;;;;;;;11.70;7.13;;;14.20;99.90;;;;;;4984589;28;20222;-87
2021/08/11 01:01:32;;;;;;;13.27;7.10;;;14.10;99.90;;;;;;4968093;28;20227;-86
2021/08/11 01:04:00;;;;;;;15.53;8.10;;;14.10;99.90;;;;;;5001326;28;21010;-84
2021/08/11 01:06:27;;;;;;;15.77;6.60;;;14.10;99.90;;;;;;4968643;28;20242;-88
2021/08/11 01:08:55;;;;;;;12.60;7.83;;;14.20;99.90;;;;;;4967526;28;20217;-87
2021/08/11 01:11:22;;;;;;;15.73;8.63;;;14.30;99.90;;;;;;4951975;28;20656;-86
2021/08/11 01:13:49;;;;;;;11.83;7.37;;;14.40;99.90;;;;;;4983203;28;20324;-88
2021/08/11 01:16:16;;;;;;;15.70;8.03;;;14.40;99.90;;;;;;4983817;28;20702;-85
2021/08/11 01:18:42;;;;;;;14.93;7.10;;;14.40;99.90;;;;;;4967730;28;20233;-85
2021/08/11 01:21:31;;;;;;;15.17;7.43;;;14.40;99.90;;;;;;4988140;28;20242;-85
2021/08/11 01:24:26;;;;;;;15.60;7.70;;;14.50;99.90;;;;;;5031562;28;20198;-86
2021/08/11 01:27:23;;;;;;;14.27;8.33;;;14.40;99.90;;;;;;5013170;28;20217;-85
2021/08/11 01:30:11;;;;;;;14.20;8.73;;;14.40;99.90;;;;;;5014740;28;20194;-83
2021/08/11 01:32:58;;;;;;;17.10;7.57;;;14.50;99.90;;;;;;5015150;28;20190;-85
2021/08/11 01:35:46;;;;;;;14.40;7.70;;;14.40;99.90;;;;;;5013241;28;20236;-86
2021/08/11 01:38:15;;;;;;;12.23;8.03;;;14.50;99.90;;;;;;5050584;28;20228;-84
2021/08/11 01:40:50;;;;;;;15.07;9.30;;;14.50;99.90;;;;;;5051695;28;20262;-84
2021/08/11 01:43:21;;;;;;;17.17;7.07;;;14.50;99.90;;;;;;5031018;28;20225;-84
2021/08/11 01:45:49;;;;;;;18.47;7.87;;;14.50;99.90;;;;;;5029658;28;20355;-85
2021/08/11 01:48:21;;;;;;;15.27;7.70;;;14.40;99.90;;;;;;5030676;28;20224;-84
2021/08/11 01:50:48;;;;;;;15.93;8.20;;;14.40;99.90;;;;;;5031731;28;20642;-85
2021/08/11 01:53:18;;;;;;;18.27;8.00;;;14.40;99.90;;;;;;5033417;28;20194;-85
2021/08/11 01:55:48;;;;;;;12.27;7.73;;;14.40;99.90;;;;;;5031492;28;20213;-84
2021/08/11 01:58:14;;;;;;;18.67;8.80;;;14.30;99.90;;;;;;5048359;28;20243;-86
2021/08/11 02:00:41;;;;;;;11.83;8.33;;;14.30;99.90;;;;;;5049017;28;20249;-85
2021/08/11 02:03:07;;;;;;;15.90;8.37;;;14.30;99.90;;;;;;5051088;28;20480;-86
2021/08/11 02:05:34;;;;;;;17.00;8.80;;;14.20;99.90;;;;;;5032732;28;20197;-86
2021/08/11 02:08:02;;;;;;;15.30;7.90;;;14.20;99.90;;;;;;5033689;28;20223;-85
2021/08/11 02:10:29;;;;;;;18.97;8.37;;;14.20;99.90;;;;;;5033395;28;20268;-84
2021/08/11 02:12:56;;;;;;;17.03;7.63;;;14.20;99.90;;;;;;5013255;28;20525;-85
2021/08/11 02:15:22;;;;;;;19.77;10.30;;;14.20;99.90;;;;;;5015496;28;20232;-86
2021/08/11 02:17:47;;;;;;;19.23;8.03;;;14.20;99.90;;;;;;5003845;28;20691;-84
2021/08/11 02:20:15;;;;;;;17.03;7.87;;;14.10;99.90;;;;;;4986944;28;20637;-85
2021/08/11 02:22:41;;;;;;;19.50;8.17;;;14.20;99.90;;;;;;5004587;28;20239;-85
2021/08/11 02:25:10;;;;;;;9.90;6.40;;;14.10;99.90;;;;;;4982634;28;20219;-85
2021/08/11 02:27:49;;;;;;;9.77;7.23;;;14.20;99.90;;;;;;5007032;28;20222;-84
2021/08/11 02:30:19;;;;;;;13.80;8.50;;;14.20;99.90;;;;;;5010979;28;20286;-86
2021/08/11 02:32:59;;;;;;;16.67;7.97;;;14.20;99.90;;;;;;4995757;28;20250;-84
2021/08/11 02:35:37;;;;;;;12.30;6.77;;;14.20;99.90;;;;;;4995183;28;20579;-84
2021/08/11 02:38:10;;;;;;;14.87;7.13;;;14.20;99.90;;;;;;4992744;28;20226;-86
2021/08/11 02:40:57;;;;;;;11.93;7.70;;;14.10;99.90;;;;;;5006749;28;20218;-86
2021/08/11 02:43:32;;;;;;;13.13;7.67;;;14.00;99.90;;;;;;5002746;28;20230;-85
2021/08/11 02:46:15;;;;;;;13.73;8.10;;;14.00;99.90;;;;;;5019994;28;20248;-87
2021/08/11 02:48:43;;;;;;;13.97;7.20;;;13.90;99.90;;;;;;5021116;28;20710;-85
2021/08/11 02:51:10;;;;;;;10.53;6.33;;;13.90;99.90;;;;;;5003603;28;20227;-86
2021/08/11 02:53:39;;;;;;;13.30;6.93;;;13.80;99.90;;;;;;5014283;28;20679;-86
2021/08/11 02:56:05;;;;;;;13.10;6.33;;;13.80;99.90;;;;;;5031316;28;20253;-85
2021/08/11 02:58:32;;;;;;;9.80;6.93;;;13.80;99.90;;;;;;5002281;28;20260;-85
2021/08/11 03:00:59;;;;;;;12.60;6.80;;;13.80;99.90;;;;;;5015780;28;20227;-84
2021/08/11 03:03:25;;;;;;;10.17;6.17;;;13.80;99.90;;;;;;5027844;28;20238;-85
2021/08/11 03:05:52;;;;;;;13.00;7.60;;;13.90;99.90;;;;;;5003140;28;20196;-85
2021/08/11 03:08:18;;;;;;;15.43;7.13;;;13.90;99.90;;;;;;4997016;28;20197;-84
2021/08/11 03:10:44;;;;;;;10.30;6.87;;;13.90;99.90;;;;;;4995823;28;20301;-87
2021/08/11 03:13:12;;;;;;;11.80;6.87;;;14.00;99.90;;;;;;5004582;28;20218;-87
2021/08/11 03:15:41;;;;;;;14.27;8.97;;;14.00;99.90;;;;;;5013176;28;20676;-85
2021/08/11 03:18:08;;;;;;;15.40;7.90;;;14.00;99.90;;;;;;5019198;28;20305;-85
2021/08/11 03:20:35;;;;;;;11.53;6.50;;;14.00;99.90;;;;;;5022832;28;20250;-85
2021/08/11 03:23:01;;;;;;;15.40;8.37;;;13.90;99.90;;;;;;5016659;28;20249;-85
2021/08/11 03:25:26;;;;;;;11.30;6.90;;;14.00;99.90;;;;;;5002251;28;20702;-84
2021/08/11 03:27:52;;;;;;;15.07;7.53;;;14.00;99.90;;;;;;5012695;28;20226;-84
2021/08/11 03:30:18;;;;;;;13.50;6.50;;;13.90;99.90;;;;;;5033030;28;20675;-87
2021/08/11 03:32:43;;;;;;;27.10;8.63;;;14.00;99.90;;;;;;5032725;28;20659;-85
2021/08/11 03:35:09;;;;;;;13.43;6.87;;;14.00;99.90;;;;;;5017990;28;20281;-85
2021/08/11 03:37:35;;;;;;;14.47;7.60;;;13.90;99.90;;;;;;5028779;28;20676;-84
2021/08/11 03:40:01;;;;;;;16.70;6.70;;;14.00;99.90;;;;;;5028515;28;20288;-85
2021/08/11 03:42:26;;;;;;;11.77;5.93;;;13.90;99.90;;;;;;5028813;28;20248;-84
2021/08/11 03:44:52;;;;;;;52.93;7.50;;;13.90;99.90;;;;;;5013893;28;20593;-84
2021/08/11 03:47:18;;;;;;;106.53;7.93;;;13.70;99.90;;;;;;5032795;28;20193;-84
2021/08/11 03:49:49;;;;;;;6.97;5.03;;;13.50;99.90;;;;;;5031171;28;20305;-87
2021/08/11 03:52:15;;;;;;;10.97;6.20;;;13.30;99.90;;;;;;5015855;28;20226;-86
2021/08/11 03:54:41;;;;;;;8.67;5.37;;;13.30;99.90;;;;;;5014614;28;20321;-84
2021/08/11 03:57:06;;;;;;;9.33;6.10;;;13.50;99.90;;;;;;5030737;28;20228;-86
2021/08/11 03:59:32;;;;;;;15.00;6.07;;;13.60;99.90;;;;;;5034585;28;20193;-85
2021/08/11 04:01:58;;;;;;;14.03;7.40;;;13.70;99.90;;;;;;5015470;28;20313;-85
2021/08/11 04:04:23;;;;;;;18.30;9.60;;;13.80;99.90;;;;;;5015164;28;20578;-85
2021/08/11 04:06:49;;;;;;;15.70;9.00;;;13.90;99.90;;;;;;5029193;28;20654;-86
2021/08/11 04:09:15;;;;;;;12.60;5.83;;;14.00;99.90;;;;;;5013127;28;20218;-86
2021/08/11 04:11:41;;;;;;;12.70;6.60;;;14.00;99.90;;;;;;5015472;28;20217;-85
2021/08/11 04:14:06;;;;;;;13.70;6.80;;;13.90;99.90;;;;;;5013764;28;20803;-86
2021/08/11 04:16:32;;;;;;;11.10;6.23;;;13.70;99.90;;;;;;5031465;28;20230;-84
2021/08/11 04:18:58;;;;;;;8.40;5.40;;;13.50;99.90;;;;;;5014214;28;20222;-85
2021/08/11 04:21:24;;;;;;;9.07;6.03;;;13.40;99.90;;;;;;4994890;28;20234;-87
2021/08/11 04:23:49;;;;;;;11.43;6.07;;;13.30;99.90;;;;;;4992651;28;20241;-86
2021/08/11 04:26:15;;;;;;;12.10;6.47;;;13.40;99.90;;;;;;5011917;28;20198;-85
2021/08/11 04:28:41;;;;;;;13.07;7.47;;;13.50;99.90;;;;;;5007530;28;20227;-85
2021/08/11 04:31:07;;;;;;;9.80;6.43;;;13.50;99.90;;;;;;4999527;28;20227;-87
2021/08/11 04:33:33;;;;;;;14.53;8.17;;;13.60;99.90;;;;;;5007614;28;20704;-85
2021/08/11 04:35:58;;;;;;;17.77;8.30;;;13.80;99.90;;;;;;4972448;28;20191;-89
2021/08/11 04:38:24;;;;;;;14.63;7.40;;;13.90;99.90;;;;;;4983501;28;20257;-85
2021/08/11 04:40:50;;;;;;;19.50;8.73;;;13.90;99.90;;;;;;5009750;28;20574;-84
2021/08/11 04:43:16;;;;;;;16.17;9.30;;;14.00;99.90;;;;;;4996539;28;20266;-89
2021/08/11 04:45:42;;;;;;;14.60;8.57;;;14.00;99.90;;;;;;4994179;28;20262;-88
2021/08/11 04:48:08;;;;;;;14.77;7.80;;;14.10;99.90;;;;;;4976943;28;20222;-85
2021/08/11 04:50:35;;;;;;;14.73;6.87;;;14.10;99.90;;;;;;4995792;28;20187;-87
2021/08/11 04:53:00;;;;;;;22.20;9.20;;;14.20;99.90;;;;;;5025587;28;20781;-87
2021/08/11 04:55:26;;;;;;;16.33;8.00;;;14.20;99.90;;;;;;5010772;28;20298;-86
2021/08/11 04:57:52;;;;;;;17.17;9.20;;;14.30;99.90;;;;;;4991146;28;20215;-87
2021/08/11 05:00:18;;;;;;;17.23;8.30;;;14.30;99.90;;;;;;4976722;28;20219;-86
2021/08/11 05:02:44;;;;;;;13.17;7.37;;;14.40;99.90;;;;;;4994849;28;20391;-84
2021/08/11 05:05:10;;;;;;;17.33;8.50;;;14.40;99.90;;;;;;5011685;28;20245;-89
2021/08/11 05:07:35;;;;;;;15.23;7.27;;;14.40;99.90;;;;;;4986283;28;20224;-87
2021/08/11 05:10:02;;;;;;;14.73;7.77;;;14.40;99.90;;;;;;4980565;28;20291;-87
2021/08/11 05:12:30;;;;;;;13.70;6.53;;;14.50;99.90;;;;;;5012100;28;20263;-87
2021/08/11 05:14:56;;;;;;;17.37;7.80;;;14.60;99.90;;;;;;4992575;28;20187;-86
2021/08/11 05:17:22;;;;;;;12.23;7.33;;;14.70;99.90;;;;;;4993892;28;20689;-87
2021/08/11 05:19:49;;;;;;;14.97;7.30;;;14.70;99.90;;;;;;5001197;28;20268;-89
2021/08/11 05:22:16;;;;;;;14.97;7.73;;;14.70;99.90;;;;;;5008203;28;20230;-91
2021/08/11 05:24:43;;;;;;;14.23;7.40;;;14.90;99.90;;;;;;5017080;28;20218;-91
2021/08/11 05:27:09;;;;;;;16.63;7.80;;;15.10;99.90;;;;;;4978796;28;20210;-91
2021/08/11 05:29:35;;;;;;;15.73;7.13;;;15.40;99.90;;;;;;4995597;28;20260;-91
2021/08/11 05:32:01;;;;;;;17.93;8.43;;;15.70;99.90;;;;;;5011126;28;20257;-91
2021/08/11 05:34:26;;;;;;;22.57;10.77;;;15.80;99.90;;;;;;4994795;28;20219;-91
2021/08/11 05:36:52;;;;;;;83.07;25.97;;;15.90;99.90;;;;;;5018844;28;20225;-90
2021/08/11 05:39:18;;;;;;;18.07;9.27;;;16.70;99.90;;;;;;4979749;28;20663;-90
2021/08/11 05:41:44;;;;;;;17.60;9.33;;;17.10;99.90;;;;;;5011641;28;20179;-90
2021/08/11 05:44:20;;;;;;;23.33;10.23;;;17.90;99.90;;;;;;5027644;28;20206;-91
2021/08/11 05:46:46;;;;;;;16.53;9.60;;;19.10;99.90;;;;;;5017314;28;20214;-90
2021/08/11 05:49:12;;;;;;;12.53;7.93;;;20.60;99.90;;;;;;4998492;28;20782;-90
2021/08/11 05:51:40;;;;;;;8.43;6.33;;;22.40;99.90;;;;;;5008669;28;20301;-91
2021/08/11 05:54:08;;;;;;;11.40;5.93;;;23.50;99.90;;;;;;4974748;28;20219;-91
2021/08/11 05:56:42;;;;;;;10.10;6.03;;;24.30;99.90;;;;;;4993175;28;20173;-92
2021/08/11 05:59:07;;;;;;;14.90;6.73;;;25.20;99.90;;;;;;4990765;28;20306;-91
2021/08/11 06:01:35;;;;;;;9.97;6.03;;;25.40;99.90;;;;;;4991030;28;20510;-91
2021/08/11 06:04:04;;;;;;;12.30;6.50;;;26.50;99.90;;;;;;4982239;28;20223;-92
2021/08/11 06:06:32;;;;;;;9.60;5.37;;;27.60;99.90;;;;;;5009155;28;20606;-91
2021/08/11 06:08:57;;;;;;;10.67;5.47;;;27.70;99.90;;;;;;4994311;28;20278;-90
2021/08/11 06:11:23;;;;;;;8.57;4.90;;;27.10;99.90;;;;;;4978560;28;20278;-89
2021/08/11 06:13:51;;;;;;;9.48;5.32;;;27.40;99.90;;;;;;4994364;28;20540;-90
2021/08/11 06:16:19;;;;;;;7.53;5.40;;;27.50;99.90;;;;;;4994620;28;20238;-90
2021/08/11 06:18:45;;;;;;;10.07;5.68;;;28.00;99.90;;;;;;4994214;28;20261;-90
2021/08/11 06:21:11;;;;;;;10.18;5.88;;;28.40;99.90;;;;;;4993664;28;20238;-90
2021/08/11 06:23:37;;;;;;;10.85;5.68;;;27.50;99.90;;;;;;5014281;28;20761;-89
2021/08/11 06:26:02;;;;;;;7.75;5.30;;;27.80;99.90;;;;;;5013989;28;20218;-90
2021/08/11 06:28:28;;;;;;;9.70;6.07;;;28.10;99.90;;;;;;4997430;28;20218;-89
2021/08/11 06:30:54;;;;;;;9.25;5.68;;;28.50;99.90;;;;;;5013564;28;20219;-89
2021/08/11 06:33:20;;;;;;;12.50;5.50;;;29.40;99.90;;;;;;5013149;28;20316;-89
2021/08/11 06:35:46;;;;;;;10.02;6.00;;;29.00;99.90;;;;;;5013593;28;20229;-92
2021/08/11 06:38:13;;;;;;;9.27;6.50;;;27.60;99.90;;;;;;5014532;28;20183;-91
2021/08/11 06:40:39;;;;;;;8.57;5.43;;;27.60;99.90;;;;;;5013477;28;20239;-93
2021/08/11 06:43:05;;;;;;;12.82;6.20;;;27.30;99.90;;;;;;4997119;28;20238;-92
2021/08/11 06:45:31;;;;;;;9.27;5.68;;;26.80;99.90;;;;;;5013773;28;20218;-91
2021/08/11 06:47:56;;;;;;;9.18;5.45;;;27.70;99.90;;;;;;5014199;28;20183;-91
2021/08/11 06:50:22;;;;;;;12.10;5.40;;;28.90;99.90;;;;;;4998271;28;20179;-93
2021/08/11 06:52:48;;;;;;;10.40;5.50;;;27.50;99.90;;;;;;5013921;28;20245;-94
2021/08/11 06:55:16;;;;;;;8.60;5.72;;;27.30;99.90;;;;;;5014079;28;20256;-92
2021/08/11 06:57:44;;;;;;;8.38;5.25;;;26.80;99.90;;;;;;4997591;28;20302;-88
2021/08/11 07:00:10;;;;;;;7.78;5.38;;;26.50;99.90;;;;;;5030549;28;20288;-94
2021/08/11 07:02:36;;;;;;;9.32;5.93;;;27.20;99.90;;;;;;4998269;28;20203;-92
2021/08/11 07:05:03;;;;;;;10.20;6.10;;;27.90;99.90;;;;;;5013965;28;20306;-92
2021/08/11 07:07:30;;;;;;;11.55;6.13;;;29.00;99.90;;;;;;4998144;28;20222;-93
2021/08/11 07:09:57;;;;;;;8.95;5.43;;;28.80;99.90;;;;;;5014563;28;20370;-91
2021/08/11 07:12:23;;;;;;;9.90;5.50;;;29.40;99.90;;;;;;5013932;28;20215;-94
2021/08/11 07:14:48;;;;;;;8.93;5.00;;;30.60;99.90;;;;;;5013752;28;20197;-94
2021/08/11 07:17:14;;;;;;;8.15;5.03;;;29.60;99.90;;;;;;4996788;28;20527;-92
2021/08/11 07:19:41;;;;;;;10.05;5.72;;;28.70;99.90;;;;;;5013195;28;20391;-93
2021/08/11 07:22:08;;;;;;;10.98;5.88;;;29.50;99.90;;;;;;5004834;28;20308;-91
2021/08/11 07:24:34;;;;;;;9.25;6.40;;;29.90;99.90;;;;;;5013950;28;20189;-92
2021/08/11 07:27:00;;;;;;;10.15;6.22;;;27.10;99.90;;;;;;5013454;28;20178;-91
2021/08/11 07:29:25;;;;;;;7.95;5.50;;;27.50;99.90;;;;;;5031091;28;20217;-91
2021/08/11 07:31:51;;;;;;;11.15;5.60;;;25.60;99.90;;;;;;5029563;28;20235;-93
2021/08/11 07:34:18;;;;;;;12.27;6.25;;;25.40;99.90;;;;;;4996839;28;20223;-93
2021/08/11 07:36:44;;;;;;;9.23;6.38;;;25.60;99.90;;;;;;5029816;28;20294;-91
2021/08/11 07:39:09;;;;;;;10.55;6.93;;;25.60;99.90;;;;;;5012639;28;20214;-91
2021/08/11 07:41:35;;;;;;;10.55;6.70;;;24.80;99.90;;;;;;5046385;28;20373;-93
2021/08/11 07:44:01;;;;;;;8.88;6.35;;;24.10;99.90;;;;;;5029960;28;20231;-92
2021/08/11 07:46:27;;;;;;;13.35;7.28;;;23.20;99.90;;;;;;5013244;28;20678;-91
2021/08/11 07:48:53;;;;;;;13.88;6.80;;;22.50;99.90;;;;;;5030559;28;20218;-94
2021/08/11 07:51:19;;;;;;;10.43;7.18;;;22.10;99.90;;;;;;5030193;28;20211;-87
2021/08/11 07:53:46;;;;;;;9.95;6.53;;;22.00;99.90;;;;;;5012145;28;20387;-87
2021/08/11 07:56:12;;;;;;;13.45;7.22;;;22.50;99.90;;;;;;5029130;28;20288;-89
2021/08/11 07:58:38;;;;;;;10.52;7.15;;;23.30;99.90;;;;;;5010930;28;20575;-91
2021/08/11 08:01:03;;;;;;;10.85;6.32;;;23.60;99.90;;;;;;4994887;28;20218;-87
2021/08/11 08:03:29;;;;;;;9.35;6.68;;;23.90;99.90;;;;;;5011026;28;20230;-89
2021/08/11 08:05:55;;;;;;;7.65;5.70;;;24.00;99.90;;;;;;4995066;28;20640;-88
2021/08/11 08:08:21;;;;;;;10.43;5.60;;;24.40;99.90;;;;;;4975938;28;20296;-86
2021/08/11 08:10:46;;;;;;;10.32;5.88;;;24.00;99.90;;;;;;5006451;28;20429;-86
2021/08/11 08:13:12;;;;;;;12.23;5.15;;;23.10;99.90;;;;;;4978782;28;20246;-89
2021/08/11 08:15:38;;;;;;;7.65;5.68;;;23.20;99.90;;;;;;4994561;28;20210;-90
2021/08/11 08:18:04;;;;;;;7.75;4.97;;;23.50;99.90;;;;;;4993951;28;20228;-87
2021/08/11 08:20:30;;;;;;;12.07;5.22;;;23.20;99.90;;;;;;5028402;28;20494;-87
2021/08/11 08:22:56;;;;;;;6.72;4.53;;;23.00;99.90;;;;;;5007450;28;20678;-90
2021/08/11 08:25:23;;;;;;;10.65;5.05;;;23.10;99.90;;;;;;5028185;28;20218;-88
2021/08/11 08:27:50;;;;;;;5.88;4.30;;;23.80;99.90;;;;;;4978292;28;20697;-86
2021/08/11 08:30:17;;;;;;;8.18;4.72;;;24.80;99.90;;;;;;5009553;28;20226;-86
2021/08/11 08:32:44;;;;;;;8.77;4.60;;;25.80;99.90;;;;;;5011274;28;20532;-86
2021/08/11 08:35:10;;;;;;;7.88;5.15;;;26.80;99.90;;;;;;5027428;28;20222;-87
2021/08/11 08:37:38;;;;;;;8.18;4.20;;;26.40;99.90;;;;;;5010126;28;20214;-87
2021/08/11 08:40:09;;;;;;;8.00;4.57;;;25.90;99.90;;;;;;5027916;28;20238;-87
2021/08/11 08:42:36;;;;;;;9.35;4.30;;;25.50;99.90;;;;;;5028153;28;20222;-88
2021/08/11 08:45:02;;;;;;;6.05;4.18;;;24.70;99.90;;;;;;5010334;28;20225;-89
2021/08/11 08:47:30;;;;;;;10.18;4.30;;;24.80;99.90;;;;;;5011268;28;20624;-87
2021/08/11 08:49:56;;;;;;;7.25;3.65;;;24.40;99.90;;;;;;5010393;28;20247;-86
2021/08/11 08:52:23;;;;;;;6.57;4.13;;;25.40;99.90;;;;;;4993877;28;20578;-87
2021/08/11 08:54:50;;;;;;;8.93;4.55;;;24.90;99.90;;;;;;4993736;28;20764;-89
2021/08/11 08:57:16;;;;;;;5.50;3.58;;;24.70;99.90;;;;;;4994038;28;20187;-87
2021/08/11 08:59:44;;;;;;;7.25;3.90;;;24.90;99.90;;;;;;5028272;28;20171;-88
2021/08/11 09:02:13;;;;;;;7.80;4.47;;;25.10;99.90;;;;;;5010009;28;20222;-87
2021/08/11 09:04:40;;;;;;;6.18;4.60;;;25.20;99.90;;;;;;5009980;28;20245;-87
2021/08/11 09:07:13;;;;;;;7.43;4.07;;;25.00;99.90;;;;;;5009741;28;20214;-87
2021/08/11 09:09:39;;;;;;;7.85;4.47;;;25.10;99.90;;;;;;5028389;28;20663;-87
2021/08/11 09:12:23;;;;;;;6.78;4.65;;;25.10;99.90;;;;;;5010152;28;20194;-88
2021/08/11 09:14:51;;;;;;;6.90;4.57;;;24.60;99.90;;;;;;5011098;28;20174;-88
2021/08/11 09:17:32;;;;;;;7.60;4.72;;;24.40;99.90;;;;;;5010104;28;20214;-89
2021/08/11 09:19:58;;;;;;;6.50;4.15;;;24.90;99.90;;;;;;5009965;28;20242;-87
2021/08/11 09:22:24;;;;;;;6.65;5.20;;;25.00;99.90;;;;;;5009465;28;20222;-91
2021/08/11 09:25:06;;;;;;;8.93;4.68;;;25.00;99.90;;;;;;5009933;28;20225;-88
2021/08/11 09:27:38;;;;;;;7.55;5.05;;;25.60;99.90;;;;;;5027263;28;20211;-88
2021/08/11 09:30:15;;;;;;;10.02;5.00;;;26.00;99.90;;;;;;5009656;28;20685;-88
2021/08/11 09:33:01;;;;;;;7.53;4.20;;;26.90;99.90;;;;;;5028063;28;20181;-87
2021/08/11 09:35:38;;;;;;;11.20;4.63;;;27.30;99.90;;;;;;5007957;28;20215;-91
2021/08/11 09:38:11;;;;;;;8.75;5.22;;;26.80;99.90;;;;;;5007627;28;20213;-89
2021/08/11 09:40:38;;;;;;;6.93;4.43;;;26.40;99.90;;;;;;4993248;28;20222;-91
2021/08/11 09:43:05;;;;;;;5.35;4.28;;;26.30;99.90;;;;;;5026974;28;20624;-87
2021/08/11 09:45:51;;;;;;;10.35;4.75;;;26.80;99.90;;;;;;5009677;28;20316;-88
2021/08/11 09:48:22;;;;;;;9.90;4.60;;;26.80;99.90;;;;;;5008807;28;20222;-88
2021/08/11 09:50:51;;;;;;;6.97;3.83;;;26.10;99.90;;;;;;5027505;28;20224;-88
2021/08/11 09:53:32;;;;;;;6.93;4.05;;;26.10;99.90;;;;;;5009384;28;20214;-91
2021/08/11 09:56:13;;;;;;;5.03;3.72;;;25.00;99.90;;;;;;5009724;28;20214;-87
2021/08/11 09:58:39;;;;;;;5.50;4.13;;;24.10;99.90;;;;;;5009638;28;20218;-87
2021/08/11 10:01:16;;;;;;;11.18;3.88;;;24.10;99.90;;;;;;5027143;28;20214;-87
2021/08/11 10:03:59;;;;;;;7.32;3.67;;;24.80;99.90;;;;;;5009115;28;20712;-86
2021/08/11 10:06:39;;;;;;;6.40;4.43;;;25.60;99.90;;;;;;5009107;28;20210;-87
2021/08/11 10:09:12;;;;;;;7.55;3.70;;;25.30;99.90;;;;;;5026423;28;20163;-87
2021/08/11 10:11:40;;;;;;;6.03;3.90;;;25.70;99.90;;;;;;5011034;28;20228;-89
2021/08/11 10:14:14;;;;;;;7.32;3.95;;;26.00;99.90;;;;;;4974727;28;20762;-86
2021/08/11 10:16:40;;;;;;;7.65;5.07;;;27.50;99.90;;;;;;5021000;28;20221;-88
2021/08/11 10:19:08;;;;;;;12.27;5.07;;;28.00;99.90;;;;;;5009131;28;20211;-89
2021/08/11 10:21:50;;;;;;;7.35;5.15;;;27.60;99.90;;;;;;5025099;28;20226;-86
2021/08/11 10:24:16;;;;;;;7.38;4.78;;;27.80;99.90;;;;;;5028882;28;20291;-87
2021/08/11 10:26:47;;;;;;;5.60;4.68;;;27.40;99.90;;;;;;5012856;28;20178;-86
2021/08/11 10:29:13;;;;;;;8.90;4.80;;;26.90;99.90;;;;;;5046651;28;20280;-86
2021/08/11 10:31:39;;;;;;;8.15;4.53;;;25.90;99.90;;;;;;5046501;28;20631;-85
2021/08/11 10:34:07;;;;;;;7.43;4.90;;;25.90;99.90;;;;;;5028850;28;20220;-88
2021/08/11 10:36:32;;;;;;;10.38;4.97;;;25.70;99.90;;;;;;5028977;28;20220;-87
2021/08/11 10:39:00;;;;;;;12.18;4.95;;;26.40;99.90;;;;;;5012163;28;20186;-88
2021/08/11 10:41:31;;;;;;;8.13;5.15;;;27.40;99.90;;;;;;5029154;28;20240;-87
2021/08/11 10:44:01;;;;;;;10.63;5.45;;;27.80;99.90;;;;;;5028781;28;20230;-87
2021/08/11 10:46:37;;;;;;;9.27;5.03;;;27.30;99.90;;;;;;5046312;28;20222;-86
2021/08/11 10:49:16;;;;;;;5.20;4.47;;;27.10;99.90;;;;;;5029094;28;20750;-86
2021/08/11 10:51:44;;;;;;;8.68;5.07;;;26.90;99.90;;;;;;5013156;28;20214;-87
2021/08/11 10:54:11;;;;;;;6.50;4.40;;;27.50;99.90;;;;;;5049444;28;20253;-85
2021/08/11 10:57:06;;;;;;;6.93;4.03;;;27.50;99.90;;;;;;5050580;28;20190;-85
2021/08/11 10:59:34;;;;;;;11.82;4.78;;;27.50;99.90;;;;;;5027752;28;20301;-88
2021/08/11 11:02:00;;;;;;;8.77;5.20;;;27.70;99.90;;;;;;5015194;28;20301;-91
2021/08/11 11:04:39;;;;;;;7.90;4.75;;;28.90;99.90;;;;;;5012187;28;20302;-86
2021/08/11 11:07:15;;;;;;;7.55;4.38;;;29.50;99.90;;;;;;5029855;28;20222;-86
2021/08/11 11:09:43;;;;;;;7.88;5.18;;;28.90;99.90;;;;;;5029922;28;20219;-87
2021/08/11 11:12:18;;;;;;;6.75;5.15;;;27.00;99.90;;;;;;5011636;28;20198;-87
2021/08/11 11:14:57;;;;;;;9.70;5.32;;;27.40;99.90;;;;;;5012662;28;20206;-87
2021/08/11 11:17:24;;;;;;;6.18;4.32;;;27.60;99.90;;;;;;5011962;28;20206;-87
2021/08/11 11:20:08;;;;;;;7.32;4.53;;;27.90;99.90;;;;;;5026531;28;20333;-88
2021/08/11 11:22:38;;;;;;;6.78;5.20;;;27.20;99.90;;;;;;5018129;28;20270;-84
2021/08/11 11:25:06;;;;;;;8.40;4.93;;;27.00;99.90;;;;;;5029178;28;20222;-86
2021/08/11 11:27:44;;;;;;;5.82;4.30;;;26.60;99.90;;;;;;4995439;28;20242;-90
2021/08/11 11:30:30;;;;;;;6.15;4.10;;;26.50;99.90;;;;;;5011302;28;20631;-88
2021/08/11 11:33:15;;;;;;;9.57;5.03;;;26.70;99.90;;;;;;5014975;28;20171;-87
2021/08/11 11:35:41;;;;;;;5.70;4.50;;;26.80;99.90;;;;;;5048513;28;20220;-84
2021/08/11 11:38:09;;;;;;;11.73;5.10;;;26.60;99.90;;;;;;5013638;28;20219;-86
2021/08/11 11:40:53;;;;;;;8.40;4.88;;;27.20;99.90;;;;;;5029487;28;20218;-87
2021/08/11 11:43:29;;;;;;;9.32;4.60;;;27.10;99.90;;;;;;5036419;28;20466;-88
2021/08/11 11:45:57;;;;;;;4.57;3.95;;;26.60;99.90;;;;;;5011385;28;20215;-89
2021/08/11 11:48:23;;;;;;;8.68;4.85;;;27.30;99.90;;;;;;5014964;28;20206;-86
2021/08/11 11:51:01;;;;;;;8.82;4.55;;;28.00;99.90;;;;;;5031663;28;20175;-86
2021/08/11 11:53:35;;;;;;;8.95;4.25;;;27.90;99.90;;;;;;5012129;28;20663;-87
2021/08/11 11:56:14;;;;;;;6.20;4.32;;;28.30;99.90;;;;;;5029347;28;20214;-88
2021/08/11 11:58:42;;;;;;;5.57;4.53;;;28.70;99.90;;;;;;5029856;28;20222;-87
2021/08/11 12:01:10;;;;;;;6.72;4.00;;;28.60;99.90;;;;;;5012540;28;20222;-90
2021/08/11 12:03:50;;;;;;;5.90;4.55;;;28.70;99.90;;;;;;5029350;28;20226;-87
2021/08/11 12:06:41;;;;;;;8.43;4.45;;;28.50;99.90;;;;;;5029566;28;20255;-87
2021/08/11 12:09:07;;;;;;;6.00;3.88;;;27.60;99.90;;;;;;5030033;28;20311;-88
2021/08/11 12:11:35;;;;;;;6.18;5.10;;;27.00;99.90;;;;;;5028748;28;20185;-86
2021/08/11 12:14:02;;;;;;;6.50;4.75;;;26.70;99.90;;;;;;5011698;28;20247;-87
2021/08/11 12:16:40;;;;;;;5.57;4.65;;;26.60;99.90;;;;;;5026983;28;20229;-86
2021/08/11 12:19:16;;;;;;;5.40;4.43;;;26.70;99.90;;;;;;5028116;28;20410;-86
2021/08/11 12:21:43;;;;;;;6.32;4.00;;;26.10;99.90;;;;;;5026301;28;20230;-86
2021/08/11 12:24:09;;;;;;;5.13;4.18;;;25.40;99.90;;;;;;5026798;28;20256;-86
2021/08/11 12:26:38;;;;;;;7.10;3.45;;;25.20;99.90;;;;;;5028468;28;20258;-86
2021/08/11 12:29:18;;;;;;;8.15;4.10;;;25.40;99.90;;;;;;5011525;28;20857;-87
2021/08/11 12:31:46;;;;;;;5.45;3.78;;;26.00;99.90;;;;;;5026965;28;20325;-87
2021/08/11 12:34:12;;;;;;;8.30;4.13;;;26.30;99.90;;;;;;5027905;28;20649;-85
2021/08/11 12:36:41;;;;;;;5.57;3.83;;;25.60;99.90;;;;;;5028546;28;20226;-86
2021/08/11 12:39:15;;;;;;;8.27;4.28;;;25.10;99.90;;;;;;5011728;28;20186;-84
2021/08/11 12:41:44;;;;;;;5.45;3.92;;;25.40;99.90;;;;;;5029242;28;20194;-85
2021/08/11 12:44:21;;;;;;;6.25;4.45;;;25.20;99.90;;;;;;5028608;28;20320;-86
2021/08/11 12:46:54;;;;;;;7.20;4.80;;;25.00;99.90;;;;;;5028505;28;20206;-87
2021/08/11 12:49:26;;;;;;;10.13;5.03;;;24.60;99.90;;;;;;5028765;28;20214;-88